sensor_id;sensor_type;location;lat;lon;timestamp;temperature;humidity
5631;DHT22;2837;50.990;7.124;2022-08-14T05:02:18;21.60;99.90
5631;DHT22;2837;50.990;7.124;2022-08-14T05:04:49;21.60;99.90
5631;DHT22;2837;50.990;7.124;2022-08-14T05:07:15;21.60;99.90
5631;DHT22;2837;50.990;7.124;2022-08-14T05:09:40;21.60;99.90
5631;DHT22;2837;50.990;7.124;2022-08-14T05:12:06;21.60;99.90
5631;DHT22;2837;50.990;7.124;2022-08-14T05:14:32;21.60;99.90
5631;DHT22;2837;50.990;7.124;2022-08-14T05:16:58;21.60;99.90
5631;DHT22;2837;50.990;7.124;2022-08-14T05:19:23;21.60;99.90
5631;DHT22;2837;50.990;7.124;2022-08-14T05:21:52;21.60;99.90
5631;DHT22;2837;50.990;7.124;2022-08-14T05:24:23;21.60;99.90
5631;DHT22;2837;50.990;7.124;2022-08-14T05:26:48;21.60;99.90
5631;DHT22;2837;50.990;7.124;2022-08-14T05:29:14;21.60;99.90
5631;DHT22;2837;50.990;7.124;2022-08-14T05:31:41;21.60;99.90
5631;DHT22;2837;50.990;7.124;2022-08-14T05:34:07;21.60;99.90
5631;DHT22;2837;50.990;7.124;2022-08-14T05:36:34;21.70;99.90
5631;DHT22;2837;50.990;7.124;2022-08-14T05:39:00;21.70;99.90
5631;DHT22;2837;50.990;7.124;2022-08-14T05:41:26;21.70;99.90
5631;DHT22;2837;50.990;7.124;2022-08-14T05:43:51;21.70;99.90
5631;DHT22;2837;50.990;7.124;2022-08-14T05:46:18;21.70;99.90
5631;DHT22;2837;50.990;7.124;2022-08-14T05:48:53;21.70;99.90
5631;DHT22;2837;50.990;7.124;2022-08-14T05:51:19;21.70;99.90
5631;DHT22;2837;50.990;7.124;2022-08-14T05:53:45;21.70;99.90
5631;DHT22;2837;50.990;7.124;2022-08-14T05:56:11;21.70;99.90
5631;DHT22;2837;50.990;7.124;2022-08-14T05:58:37;21.80;99.90
5631;DHT22;2837;50.990;7.124;2022-08-14T06:01:03;21.80;99.90
5631;DHT22;2837;50.990;7.124;2022-08-14T06:03:28;21.80;99.90
5631;DHT22;2837;50.990;7.124;2022-08-14T06:05:54;21.80;99.90
5631;DHT22;2837;50.990;7.124;2022-08-14T06:08:27;21.80;99.90
5631;DHT22;2837;50.990;7.124;2022-08-14T06:10:56;21.80;99.90
5631;DHT22;2837;50.990;7.124;2022-08-14T06:13:22;21.80;99.90
5631;DHT22;2837;50.990;7.124;2022-08-14T06:15:48;21.80;99.90
5631;DHT22;2837;50.990;7.124;2022-08-14T06:18:16;21.80;99.90
5631;DHT22;2837;50.990;7.124;2022-08-14T06:20:42;21.90;99.90
5631;DHT22;2837;50.990;7.124;2022-08-14T06:23:07;21.90;99.90
5631;DHT22;2837;50.990;7.124;2022-08-14T06:25:33;21.90;99.90
5631;DHT22;2837;50.990;7.124;2022-08-14T06:27:59;21.90;99.90
5631;DHT22;2837;50.990;7.124;2022-08-14T06:30:26;21.90;99.90
5631;DHT22;2837;50.990;7.124;2022-08-14T06:32:52;21.90;99.90
5631;DHT22;2837;50.990;7.124;2022-08-14T06:35:19;21.90;99.90
5631;DHT22;2837;50.990;7.124;2022-08-14T06:37:49;21.90;99.90
5631;DHT22;2837;50.990;7.124;2022-08-14T06:40:18;21.90;99.90
5631;DHT22;2837;50.990;7.124;2022-08-14T06:42:45;22.00;99.90
5631;DHT22;2837;50.990;7.124;2022-08-14T06:45:11;22.00;99.90
5631;DHT22;2837;50.990;7.124;2022-08-14T06:47:38;22.00;99.90
5631;DHT22;2837;50.990;7.124;2022-08-14T06:50:06;22.00;99.90
5631;DHT22;2837;50.990;7.124;2022-08-14T06:52:32;22.00;99.90
5631;DHT22;2837;50.990;7.124;2022-08-14T06:54:57;22.00;99.90
5631;DHT22;2837;50.990;7.124;2022-08-14T06:57:24;22.00;99.90
5631;DHT22;2837;50.990;7.124;2022-08-14T06:59:53;22.10;99.90
5631;DHT22;2837;50.990;7.124;2022-08-14T07:02:18;22.10;99.90
5631;DHT22;2837;50.990;7.124;2022-08-14T07:05:02;22.10;99.90
5631;DHT22;2837;50.990;7.124;2022-08-14T07:08:01;22.10;99.90
5631;DHT22;2837;50.990;7.124;2022-08-14T07:10:27;22.10;99.90
5631;DHT22;2837;50.990;7.124;2022-08-14T07:12:53;22.20;99.90
5631;DHT22;2837;50.990;7.124;2022-08-14T07:15:18;22.20;99.90
5631;DHT22;2837;50.990;7.124;2022-08-14T07:17:49;22.20;99.90
5631;DHT22;2837;50.990;7.124;2022-08-14T07:20:14;22.20;99.90
5631;DHT22;2837;50.990;7.124;2022-08-14T07:22:42;22.20;99.90
5631;DHT22;2837;50.990;7.124;2022-08-14T07:25:09;22.20;99.90
5631;DHT22;2837;50.990;7.124;2022-08-14T07:27:37;22.20;99.90
5631;DHT22;2837;50.990;7.124;2022-08-14T07:30:04;22.20;99.90
5631;DHT22;2837;50.990;7.124;2022-08-14T07:32:30;22.20;99.90
5631;DHT22;2837;50.990;7.124;2022-08-14T07:34:55;22.20;99.90
5631;DHT22;2837;50.990;7.124;2022-08-14T07:37:21;22.20;99.90
5631;DHT22;2837;50.990;7.124;2022-08-14T07:39:46;22.20;99.90
5631;DHT22;2837;50.990;7.124;2022-08-14T07:42:12;22.20;99.90
5631;DHT22;2837;50.990;7.124;2022-08-14T07:44:38;22.30;99.90
5631;DHT22;2837;50.990;7.124;2022-08-14T07:47:04;22.30;99.90
5631;DHT22;2837;50.990;7.124;2022-08-14T07:49:32;22.30;99.90
5631;DHT22;2837;50.990;7.124;2022-08-14T07:52:02;22.30;99.90
5631;DHT22;2837;50.990;7.124;2022-08-14T07:54:28;22.40;99.90
5631;DHT22;2837;50.990;7.124;2022-08-14T07:56:54;22.30;99.90
5631;DHT22;2837;50.990;7.124;2022-08-14T07:59:19;22.30;99.90
5631;DHT22;2837;50.990;7.124;2022-08-14T08:01:47;22.30;99.90
5631;DHT22;2837;50.990;7.124;2022-08-14T08:04:13;22.40;99.90
5631;DHT22;2837;50.990;7.124;2022-08-14T08:06:40;22.40;99.90
5631;DHT22;2837;50.990;7.124;2022-08-14T08:09:07;22.40;99.90
5631;DHT22;2837;50.990;7.124;2022-08-14T08:11:34;22.40;99.90
5631;DHT22;2837;50.990;7.124;2022-08-14T08:14:02;22.50;99.90
5631;DHT22;2837;50.990;7.124;2022-08-14T08:16:32;22.40;99.90
5631;DHT22;2837;50.990;7.124;2022-08-14T08:18:57;22.40;99.90
5631;DHT22;2837;50.990;7.124;2022-08-14T08:21:23;22.40;99.90
5631;DHT22;2837;50.990;7.124;2022-08-14T08:23:50;22.50;99.90
5631;DHT22;2837;50.990;7.124;2022-08-14T08:26:15;22.50;99.90
5631;DHT22;2837;50.990;7.124;2022-08-14T08:28:41;22.50;99.90
5631;DHT22;2837;50.990;7.124;2022-08-14T08:31:06;22.50;99.90
5631;DHT22;2837;50.990;7.124;2022-08-14T08:33:34;22.50;99.90
5631;DHT22;2837;50.990;7.124;2022-08-14T08:36:07;22.50;99.90
5631;DHT22;2837;50.990;7.124;2022-08-14T08:38:35;22.50;99.90
5631;DHT22;2837;50.990;7.124;2022-08-14T08:41:01;22.50;99.90
5631;DHT22;2837;50.990;7.124;2022-08-14T08:43:31;22.50;99.90
5631;DHT22;2837;50.990;7.124;2022-08-14T08:46:04;22.50;99.90
5631;DHT22;2837;50.990;7.124;2022-08-14T08:48:46;22.60;99.90
5631;DHT22;2837;50.990;7.124;2022-08-14T08:51:30;22.50;99.90
5631;DHT22;2837;50.990;7.124;2022-08-14T08:54:00;22.50;99.90
5631;DHT22;2837;50.990;7.124;2022-08-14T08:56:56;22.60;99.90
5631;DHT22;2837;50.990;7.124;2022-08-14T09:02:00;22.60;99.90
5631;DHT22;2837;50.990;7.124;2022-08-14T09:04:27;22.60;99.90
5631;DHT22;2837;50.990;7.124;2022-08-14T09:06:55;22.60;99.90
5631;DHT22;2837;50.990;7.124;2022-08-14T09:09:23;22.60;99.90
5631;DHT22;2837;50.990;7.124;2022-08-14T09:11:50;22.60;99.90
5631;DHT22;2837;50.990;7.124;2022-08-14T09:14:18;22.60;99.90
5631;DHT22;2837;50.990;7.124;2022-08-14T09:16:44;22.60;99.90
5631;DHT22;2837;50.990;7.124;2022-08-14T09:19:10;22.60;99.90
5631;DHT22;2837;50.990;7.124;2022-08-14T09:21:38;22.70;99.90
5631;DHT22;2837;50.990;7.124;2022-08-14T09:24:05;22.60;99.90
5631;DHT22;2837;50.990;7.124;2022-08-14T09:26:31;22.60;99.90
5631;DHT22;2837;50.990;7.124;2022-08-14T09:28:56;22.70;99.90
5631;DHT22;2837;50.990;7.124;2022-08-14T09:31:23;22.70;99.90
5631;DHT22;2837;50.990;7.124;2022-08-14T09:45:45;22.70;99.90
5631;DHT22;2837;50.990;7.124;2022-08-14T09:48:20;22.70;99.90
5631;DHT22;2837;50.990;7.124;2022-08-14T09:50:49;22.70;99.90
5631;DHT22;2837;50.990;7.124;2022-08-14T09:53:38;22.70;99.90
5631;DHT22;2837;50.990;7.124;2022-08-14T09:56:02;22.70;99.90
5631;DHT22;2837;50.990;7.124;2022-08-14T09:58:42;22.70;99.90
5631;DHT22;2837;50.990;7.124;2022-08-14T10:01:18;22.80;99.90
5631;DHT22;2837;50.990;7.124;2022-08-14T10:03:49;22.80;99.90
5631;DHT22;2837;50.990;7.124;2022-08-14T10:06:19;22.80;99.90
5631;DHT22;2837;50.990;7.124;2022-08-14T10:11:29;22.80;99.90
5631;DHT22;2837;50.990;7.124;2022-08-14T10:14:15;22.80;99.90
5631;DHT22;2837;50.990;7.124;2022-08-14T10:16:48;22.90;99.90
5631;DHT22;2837;50.990;7.124;2022-08-14T10:19:17;22.90;99.90
5631;DHT22;2837;50.990;7.124;2022-08-14T10:22:07;23.00;99.90
5631;DHT22;2837;50.990;7.124;2022-08-14T10:24:41;23.00;99.90
5631;DHT22;2837;50.990;7.124;2022-08-14T10:27:20;23.10;99.90
5631;DHT22;2837;50.990;7.124;2022-08-14T10:29:58;23.10;99.90
5631;DHT22;2837;50.990;7.124;2022-08-14T10:32:29;23.10;99.90
5631;DHT22;2837;50.990;7.124;2022-08-14T10:35:09;23.10;99.90
5631;DHT22;2837;50.990;7.124;2022-08-14T10:37:40;23.20;99.90
5631;DHT22;2837;50.990;7.124;2022-08-14T10:40:06;23.20;99.90
5631;DHT22;2837;50.990;7.124;2022-08-14T10:42:40;23.20;99.90
5631;DHT22;2837;50.990;7.124;2022-08-14T10:45:30;23.20;99.90
5631;DHT22;2837;50.990;7.124;2022-08-14T10:47:59;23.20;99.90
5631;DHT22;2837;50.990;7.124;2022-08-14T10:50:34;23.20;99.90
5631;DHT22;2837;50.990;7.124;2022-08-14T10:53:00;23.20;99.90
5631;DHT22;2837;50.990;7.124;2022-08-14T10:55:34;23.20;99.90
5631;DHT22;2837;50.990;7.124;2022-08-14T10:58:08;23.20;99.90
5631;DHT22;2837;50.990;7.124;2022-08-14T11:00:40;23.20;99.90
5631;DHT22;2837;50.990;7.124;2022-08-14T11:03:11;23.30;99.90
5631;DHT22;2837;50.990;7.124;2022-08-14T11:05:43;23.30;99.90
5631;DHT22;2837;50.990;7.124;2022-08-14T11:08:10;23.30;99.90
5631;DHT22;2837;50.990;7.124;2022-08-14T11:10:43;23.30;99.90
5631;DHT22;2837;50.990;7.124;2022-08-14T11:13:13;23.30;99.90
5631;DHT22;2837;50.990;7.124;2022-08-14T11:15:39;23.30;99.90
5631;DHT22;2837;50.990;7.124;2022-08-14T11:18:05;23.30;99.90
5631;DHT22;2837;50.990;7.124;2022-08-14T11:20:31;23.30;99.90
5631;DHT22;2837;50.990;7.124;2022-08-14T11:22:59;23.30;99.90
5631;DHT22;2837;50.990;7.124;2022-08-14T11:25:28;23.30;99.90
5631;DHT22;2837;50.990;7.124;2022-08-14T11:27:57;23.30;99.90
5631;DHT22;2837;50.990;7.124;2022-08-14T11:30:25;23.30;99.90
5631;DHT22;2837;50.990;7.124;2022-08-14T11:32:52;23.40;99.90
5631;DHT22;2837;50.990;7.124;2022-08-14T11:35:25;23.40;99.90
5631;DHT22;2837;50.990;7.124;2022-08-14T11:37:57;23.40;99.90
5631;DHT22;2837;50.990;7.124;2022-08-14T11:40:25;23.40;99.90
5631;DHT22;2837;50.990;7.124;2022-08-14T11:42:52;23.40;99.90
5631;DHT22;2837;50.990;7.124;2022-08-14T11:45:22;23.50;99.90
5631;DHT22;2837;50.990;7.124;2022-08-14T11:47:49;23.50;99.90
5631;DHT22;2837;50.990;7.124;2022-08-14T11:50:18;23.50;99.90
5631;DHT22;2837;50.990;7.124;2022-08-14T11:52:45;23.50;99.90
5631;DHT22;2837;50.990;7.124;2022-08-14T11:55:12;23.50;99.90
5631;DHT22;2837;50.990;7.124;2022-08-14T11:57:40;23.60;99.90
5631;DHT22;2837;50.990;7.124;2022-08-14T12:00:09;23.60;99.90
5631;DHT22;2837;50.990;7.124;2022-08-14T12:02:36;23.60;99.90
5631;DHT22;2837;50.990;7.124;2022-08-14T12:05:03;23.60;99.90
5631;DHT22;2837;50.990;7.124;2022-08-14T12:07:29;23.60;99.90
5631;DHT22;2837;50.990;7.124;2022-08-14T12:09:55;23.60;99.90
5631;DHT22;2837;50.990;7.124;2022-08-14T12:12:28;23.60;99.90
5631;DHT22;2837;50.990;7.124;2022-08-14T12:14:58;23.60;99.90
5631;DHT22;2837;50.990;7.124;2022-08-14T12:17:29;23.60;99.90
5631;DHT22;2837;50.990;7.124;2022-08-14T12:20:00;23.60;99.90
5631;DHT22;2837;50.990;7.124;2022-08-14T12:22:45;23.60;99.90
5631;DHT22;2837;50.990;7.124;2022-08-14T12:25:13;23.60;99.90
5631;DHT22;2837;50.990;7.124;2022-08-14T12:27:44;23.60;99.90
5631;DHT22;2837;50.990;7.124;2022-08-14T12:30:36;23.60;99.90
5631;DHT22;2837;50.990;7.124;2022-08-14T12:33:04;23.60;99.90
5631;DHT22;2837;50.990;7.124;2022-08-14T12:35:53;23.70;99.90
5631;DHT22;2837;50.990;7.124;2022-08-14T12:38:29;23.70;99.90
5631;DHT22;2837;50.990;7.124;2022-08-14T12:40:55;23.80;99.90
5631;DHT22;2837;50.990;7.124;2022-08-14T12:43:20;23.80;99.90
5631;DHT22;2837;50.990;7.124;2022-08-14T12:45:48;23.90;99.90
5631;DHT22;2837;50.990;7.124;2022-08-14T12:48:15;23.80;99.90
5631;DHT22;2837;50.990;7.124;2022-08-14T12:50:42;23.90;99.90
5631;DHT22;2837;50.990;7.124;2022-08-14T12:53:09;23.90;99.90
5631;DHT22;2837;50.990;7.124;2022-08-14T12:55:36;23.80;99.90
5631;DHT22;2837;50.990;7.124;2022-08-14T12:58:04;23.80;99.90
5631;DHT22;2837;50.990;7.124;2022-08-14T13:00:33;23.80;99.90
5631;DHT22;2837;50.990;7.124;2022-08-14T13:02:59;23.80;99.90
5631;DHT22;2837;50.990;7.124;2022-08-14T13:05:28;23.80;99.90
5631;DHT22;2837;50.990;7.124;2022-08-14T13:07:55;23.80;99.90
5631;DHT22;2837;50.990;7.124;2022-08-14T13:10:22;23.80;99.90
5631;DHT22;2837;50.990;7.124;2022-08-14T13:12:53;23.80;99.90
5631;DHT22;2837;50.990;7.124;2022-08-14T13:15:19;23.80;99.90
5631;DHT22;2837;50.990;7.124;2022-08-14T13:17:47;23.80;99.90
5631;DHT22;2837;50.990;7.124;2022-08-14T13:20:15;23.80;99.90
5631;DHT22;2837;50.990;7.124;2022-08-14T13:22:42;23.80;99.90
5631;DHT22;2837;50.990;7.124;2022-08-14T13:25:14;23.80;99.90
5631;DHT22;2837;50.990;7.124;2022-08-14T13:27:43;23.90;99.90
5631;DHT22;2837;50.990;7.124;2022-08-14T13:30:10;23.90;99.90
5631;DHT22;2837;50.990;7.124;2022-08-14T13:32:37;24.00;99.90
5631;DHT22;2837;50.990;7.124;2022-08-14T13:35:08;24.00;99.90
5631;DHT22;2837;50.990;7.124;2022-08-14T13:37:34;24.10;99.90
5631;DHT22;2837;50.990;7.124;2022-08-14T13:40:00;24.10;99.90
5631;DHT22;2837;50.990;7.124;2022-08-14T13:42:27;24.10;99.90
5631;DHT22;2837;50.990;7.124;2022-08-14T13:44:55;24.10;99.90
5631;DHT22;2837;50.990;7.124;2022-08-14T13:47:22;24.10;99.90
5631;DHT22;2837;50.990;7.124;2022-08-14T13:49:49;24.10;99.90
5631;DHT22;2837;50.990;7.124;2022-08-14T13:52:20;24.10;99.90
5631;DHT22;2837;50.990;7.124;2022-08-14T13:54:48;24.10;99.90
5631;DHT22;2837;50.990;7.124;2022-08-14T13:57:15;24.10;99.90
5631;DHT22;2837;50.990;7.124;2022-08-14T13:59:47;24.10;99.90
5631;DHT22;2837;50.990;7.124;2022-08-14T14:02:15;24.10;99.90
5631;DHT22;2837;50.990;7.124;2022-08-14T14:04:47;24.00;99.90
5631;DHT22;2837;50.990;7.124;2022-08-14T14:07:19;24.10;99.90
5631;DHT22;2837;50.990;7.124;2022-08-14T14:09:47;24.10;99.90
5631;DHT22;2837;50.990;7.124;2022-08-14T14:12:14;24.10;99.90
5631;DHT22;2837;50.990;7.124;2022-08-14T14:14:41;24.10;99.90
5631;DHT22;2837;50.990;7.124;2022-08-14T14:17:11;24.10;99.90
5631;DHT22;2837;50.990;7.124;2022-08-14T14:19:41;24.10;99.90
5631;DHT22;2837;50.990;7.124;2022-08-14T14:22:09;24.10;99.90
5631;DHT22;2837;50.990;7.124;2022-08-14T14:24:35;24.10;99.90
5631;DHT22;2837;50.990;7.124;2022-08-14T14:27:04;24.20;99.90
5631;DHT22;2837;50.990;7.124;2022-08-14T14:29:31;24.20;99.90
5631;DHT22;2837;50.990;7.124;2022-08-14T14:31:58;24.20;99.90
5631;DHT22;2837;50.990;7.124;2022-08-14T14:34:25;24.20;99.90
5631;DHT22;2837;50.990;7.124;2022-08-14T14:36:52;24.20;99.90
5631;DHT22;2837;50.990;7.124;2022-08-14T14:39:27;24.30;99.90
5631;DHT22;2837;50.990;7.124;2022-08-14T14:41:55;24.20;99.90
5631;DHT22;2837;50.990;7.124;2022-08-14T14:44:25;24.20;99.90
5631;DHT22;2837;50.990;7.124;2022-08-14T14:46:56;24.20;99.90
5631;DHT22;2837;50.990;7.124;2022-08-14T14:49:23;24.20;99.90
5631;DHT22;2837;50.990;7.124;2022-08-14T14:51:49;24.30;99.90
5631;DHT22;2837;50.990;7.124;2022-08-14T14:54:17;24.30;99.90
5631;DHT22;2837;50.990;7.124;2022-08-14T14:56:43;24.30;99.90
5631;DHT22;2837;50.990;7.124;2022-08-14T14:59:11;24.30;99.90
5631;DHT22;2837;50.990;7.124;2022-08-14T15:01:37;24.30;99.90
5631;DHT22;2837;50.990;7.124;2022-08-14T15:04:04;24.30;99.90
5631;DHT22;2837;50.990;7.124;2022-08-14T15:06:31;24.40;99.90
5631;DHT22;2837;50.990;7.124;2022-08-14T15:08:58;24.40;99.90
5631;DHT22;2837;50.990;7.124;2022-08-14T15:11:24;24.30;99.90
5631;DHT22;2837;50.990;7.124;2022-08-14T15:13:51;24.30;99.90
5631;DHT22;2837;50.990;7.124;2022-08-14T15:16:16;24.30;99.90
5631;DHT22;2837;50.990;7.124;2022-08-14T15:18:42;24.30;99.90
5631;DHT22;2837;50.990;7.124;2022-08-14T15:21:10;24.30;99.90
5631;DHT22;2837;50.990;7.124;2022-08-14T15:23:36;24.30;99.90
5631;DHT22;2837;50.990;7.124;2022-08-14T15:26:01;24.30;99.90
5631;DHT22;2837;50.990;7.124;2022-08-14T15:28:30;24.20;99.90
5631;DHT22;2837;50.990;7.124;2022-08-14T15:30:58;24.20;99.90
5631;DHT22;2837;50.990;7.124;2022-08-14T15:33:23;24.20;99.90
5631;DHT22;2837;50.990;7.124;2022-08-14T15:36:08;24.20;99.90
5631;DHT22;2837;50.990;7.124;2022-08-14T15:38:34;24.20;99.90
5631;DHT22;2837;50.990;7.124;2022-08-14T15:41:00;24.20;99.90
5631;DHT22;2837;50.990;7.124;2022-08-14T15:43:26;24.20;99.90
5631;DHT22;2837;50.990;7.124;2022-08-14T15:45:56;24.20;99.90
5631;DHT22;2837;50.990;7.124;2022-08-14T15:48:22;24.20;99.90
5631;DHT22;2837;50.990;7.124;2022-08-14T15:50:47;24.20;99.90
5631;DHT22;2837;50.990;7.124;2022-08-14T15:53:13;24.10;99.90
5631;DHT22;2837;50.990;7.124;2022-08-14T15:55:38;24.10;99.90
5631;DHT22;2837;50.990;7.124;2022-08-14T15:58:05;24.10;99.90
5631;DHT22;2837;50.990;7.124;2022-08-14T16:00:32;24.10;99.90
5631;DHT22;2837;50.990;7.124;2022-08-14T16:03:17;24.10;99.90
5631;DHT22;2837;50.990;7.124;2022-08-14T16:05:43;24.10;99.90
5631;DHT22;2837;50.990;7.124;2022-08-14T16:08:09;24.10;99.90
5631;DHT22;2837;50.990;7.124;2022-08-14T16:10:35;24.10;99.90
5631;DHT22;2837;50.990;7.124;2022-08-14T16:13:01;24.10;99.90
5631;DHT22;2837;50.990;7.124;2022-08-14T16:15:26;24.10;99.90
5631;DHT22;2837;50.990;7.124;2022-08-14T16:17:53;24.00;99.90
5631;DHT22;2837;50.990;7.124;2022-08-14T16:20:19;24.10;99.90
5631;DHT22;2837;50.990;7.124;2022-08-14T16:22:47;24.10;99.90
5631;DHT22;2837;50.990;7.124;2022-08-14T16:25:13;24.10;99.90
5631;DHT22;2837;50.990;7.124;2022-08-14T16:27:41;24.10;99.90
5631;DHT22;2837;50.990;7.124;2022-08-14T16:30:14;24.10;99.90
5631;DHT22;2837;50.990;7.124;2022-08-14T16:32:40;24.10;99.90
5631;DHT22;2837;50.990;7.124;2022-08-14T16:35:10;24.00;99.90
5631;DHT22;2837;50.990;7.124;2022-08-14T16:37:39;24.00;99.90
5631;DHT22;2837;50.990;7.124;2022-08-14T16:40:09;24.00;99.90
5631;DHT22;2837;50.990;7.124;2022-08-14T16:42:38;24.00;99.90
5631;DHT22;2837;50.990;7.124;2022-08-14T16:45:06;24.00;99.90
5631;DHT22;2837;50.990;7.124;2022-08-14T16:47:33;24.00;99.90
5631;DHT22;2837;50.990;7.124;2022-08-14T16:49:59;24.00;99.90
5631;DHT22;2837;50.990;7.124;2022-08-14T16:52:25;24.00;99.90
5631;DHT22;2837;50.990;7.124;2022-08-14T16:54:51;24.00;99.90
5631;DHT22;2837;50.990;7.124;2022-08-14T16:57:21;24.00;99.90
5631;DHT22;2837;50.990;7.124;2022-08-14T16:59:49;24.00;99.90
5631;DHT22;2837;50.990;7.124;2022-08-14T17:02:15;24.00;99.90
5631;DHT22;2837;50.990;7.124;2022-08-14T17:04:41;24.00;99.90
5631;DHT22;2837;50.990;7.124;2022-08-14T17:07:12;24.00;99.90
5631;DHT22;2837;50.990;7.124;2022-08-14T17:09:46;24.00;99.90
5631;DHT22;2837;50.990;7.124;2022-08-14T17:17:39;24.00;99.90
5631;DHT22;2837;50.990;7.124;2022-08-14T17:20:17;24.00;99.90
5631;DHT22;2837;50.990;7.124;2022-08-14T17:23:06;24.00;99.90
5631;DHT22;2837;50.990;7.124;2022-08-14T17:25:32;24.00;99.90
5631;DHT22;2837;50.990;7.124;2022-08-14T17:28:21;24.00;99.90
5631;DHT22;2837;50.990;7.124;2022-08-14T17:30:56;24.00;99.90
5631;DHT22;2837;50.990;7.124;2022-08-14T17:33:28;24.00;99.90
5631;DHT22;2837;50.990;7.124;2022-08-14T17:36:21;24.00;99.90
5631;DHT22;2837;50.990;7.124;2022-08-14T17:41:40;24.00;99.90
5631;DHT22;2837;50.990;7.124;2022-08-14T17:44:27;23.90;99.90
5631;DHT22;2837;50.990;7.124;2022-08-14T17:46:54;23.90;99.90
5631;DHT22;2837;50.990;7.124;2022-08-14T17:49:43;23.90;99.90
5631;DHT22;2837;50.990;7.124;2022-08-14T17:52:14;23.90;99.90
5631;DHT22;2837;50.990;7.124;2022-08-14T17:54:44;23.90;99.90
5631;DHT22;2837;50.990;7.124;2022-08-14T17:57:18;23.80;99.90
5631;DHT22;2837;50.990;7.124;2022-08-14T17:59:45;23.90;99.90
5631;DHT22;2837;50.990;7.124;2022-08-14T18:02:16;23.80;99.90
5631;DHT22;2837;50.990;7.124;2022-08-14T18:04:42;23.80;99.90
5631;DHT22;2837;50.990;7.124;2022-08-14T18:07:15;23.80;99.90
5631;DHT22;2837;50.990;7.124;2022-08-14T18:09:44;23.80;99.90
5631;DHT22;2837;50.990;7.124;2022-08-14T18:12:10;23.80;99.90
5631;DHT22;2837;50.990;7.124;2022-08-14T18:14:37;23.80;99.90
5631;DHT22;2837;50.990;7.124;2022-08-14T18:17:05;23.80;99.90
5631;DHT22;2837;50.990;7.124;2022-08-14T18:19:33;23.80;99.90
5631;DHT22;2837;50.990;7.124;2022-08-14T18:22:02;23.80;99.90
5631;DHT22;2837;50.990;7.124;2022-08-14T18:24:30;23.80;99.90
5631;DHT22;2837;50.990;7.124;2022-08-14T18:27:12;23.70;99.90
5631;DHT22;2837;50.990;7.124;2022-08-14T18:29:47;23.70;99.90
5631;DHT22;2837;50.990;7.124;2022-08-14T18:34:58;23.70;99.90
5631;DHT22;2837;50.990;7.124;2022-08-14T18:37:24;23.70;99.90
5631;DHT22;2837;50.990;7.124;2022-08-14T18:39:50;23.70;99.90
5631;DHT22;2837;50.990;7.124;2022-08-14T18:52:18;23.60;99.90
5631;DHT22;2837;50.990;7.124;2022-08-14T18:54:44;23.60;99.90
5631;DHT22;2837;50.990;7.124;2022-08-14T18:57:10;23.50;99.90
5631;DHT22;2837;50.990;7.124;2022-08-14T18:59:38;23.60;99.90
5631;DHT22;2837;50.990;7.124;2022-08-14T19:04:56;23.50;99.90
5631;DHT22;2837;50.990;7.124;2022-08-14T19:07:22;23.50;99.90
5631;DHT22;2837;50.990;7.124;2022-08-14T19:09:54;23.50;99.90
5631;DHT22;2837;50.990;7.124;2022-08-14T19:15:42;23.50;99.90
5631;DHT22;2837;50.990;7.124;2022-08-14T19:18:28;23.40;99.90
5631;DHT22;2837;50.990;7.124;2022-08-14T19:20:59;23.40;99.90
5631;DHT22;2837;50.990;7.124;2022-08-14T19:23:28;23.40;99.90
5631;DHT22;2837;50.990;7.124;2022-08-14T19:25:57;23.40;99.90
5631;DHT22;2837;50.990;7.124;2022-08-14T19:28:30;23.40;99.90
5631;DHT22;2837;50.990;7.124;2022-08-14T19:33:48;23.40;99.90
5631;DHT22;2837;50.990;7.124;2022-08-14T19:36:16;23.40;99.90
5631;DHT22;2837;50.990;7.124;2022-08-14T19:39:00;23.30;99.90
5631;DHT22;2837;50.990;7.124;2022-08-14T19:43:53;23.30;99.90
5631;DHT22;2837;50.990;7.124;2022-08-14T19:46:26;23.30;99.90
5631;DHT22;2837;50.990;7.124;2022-08-14T19:48:53;23.20;99.90
5631;DHT22;2837;50.990;7.124;2022-08-14T19:51:20;23.20;99.90
5631;DHT22;2837;50.990;7.124;2022-08-14T19:53:55;23.20;99.90
5631;DHT22;2837;50.990;7.124;2022-08-14T19:56:23;23.20;99.90
5631;DHT22;2837;50.990;7.124;2022-08-14T19:58:50;23.20;99.90
5631;DHT22;2837;50.990;7.124;2022-08-14T20:01:24;23.20;99.90
5631;DHT22;2837;50.990;7.124;2022-08-14T20:03:50;23.20;99.90
5631;DHT22;2837;50.990;7.124;2022-08-14T20:06:18;23.20;99.90
5631;DHT22;2837;50.990;7.124;2022-08-14T20:08:43;23.10;99.90
5631;DHT22;2837;50.990;7.124;2022-08-14T20:11:28;23.10;99.90
5631;DHT22;2837;50.990;7.124;2022-08-14T20:14:21;23.10;99.90
5631;DHT22;2837;50.990;7.124;2022-08-14T20:16:50;23.10;99.90
5631;DHT22;2837;50.990;7.124;2022-08-14T20:19:21;23.10;99.90
5631;DHT22;2837;50.990;7.124;2022-08-14T20:21:53;23.10;99.90
5631;DHT22;2837;50.990;7.124;2022-08-14T20:27:17;23.00;99.90
5631;DHT22;2837;50.990;7.124;2022-08-14T20:29:59;23.00;99.90
5631;DHT22;2837;50.990;7.124;2022-08-14T20:35:29;23.00;99.90
5631;DHT22;2837;50.990;7.124;2022-08-14T20:38:14;23.00;99.90
5631;DHT22;2837;50.990;7.124;2022-08-14T20:40:49;22.90;99.90
5631;DHT22;2837;50.990;7.124;2022-08-14T20:46:30;22.90;99.90
5631;DHT22;2837;50.990;7.124;2022-08-14T20:51:39;22.90;99.90
5631;DHT22;2837;50.990;7.124;2022-08-14T20:54:09;22.80;99.90
5631;DHT22;2837;50.990;7.124;2022-08-14T20:56:41;22.80;99.90
5631;DHT22;2837;50.990;7.124;2022-08-14T20:59:18;22.80;99.90
